Time,TemperatureF,DewpointF,PressureIn,WindDirection,WindDirectionDegrees,WindSpeedMPH,WindSpeedGustMPH,Humidity,HourlyPrecipIn,Conditions,Clouds,dailyrainin,SoftwareType,DateUTC
2013-04-01 00:02:00,42.7,20.1,29.93,East,100,6.0,10.0,40,0.00,,,0.00,vanprod-2.5-rc3,2013-04-01 06:02:00,
2013-04-01 00:07:00,43.1,19.8,29.93,East,101,6.0,11.0,39,0.00,,,0.00,vanprod-2.5-rc3,2013-04-01 06:07:00,
2013-04-01 00:12:00,43.3,20.0,29.93,East,87,7.0,13.0,39,0.00,,,0.00,vanprod-2.5-rc3,2013-04-01 06:12:00,
2013-04-01 00:17:00,43.3,20.0,29.93,ENE,78,6.0,7.0,39,0.00,,,0.00,vanprod-2.5-rc3,2013-04-01 06:17:00,
2013-04-01 00:22:00,42.9,19.7,29.93,East,80,6.0,7.0,39,0.00,,,0.00,vanprod-2.5-rc3,2013-04-01 06:22:00,
2013-04-01 00:27:00,42.4,19.8,29.93,East,80,5.0,6.0,40,0.00,,,0.00,vanprod-2.5-rc3,2013-04-01 06:27:00,
2013-04-01 00:32:00,41.8,19.8,29.94,East,83,5.0,7.0,41,0.00,,,0.00,vanprod-2.5-rc3,2013-04-01 06:32:00,
2013-04-01 00:37:00,41.2,19.3,29.94,East,96,3.0,4.0,41,0.00,,,0.00,vanprod-2.5-rc3,2013-04-01 06:37:00,
2013-04-01 00:42:00,41.0,19.1,29.94,ENE,67,2.0,3.0,41,0.00,,,0.00,vanprod-2.5-rc3,2013-04-01 06:42:00,
2013-04-01 00:48:00,40.6,18.8,29.94,ENE,63,2.0,7.0,41,0.00,,,0.00,vanprod-2.5-rc3,2013-04-01 06:48:00,
2013-04-01 00:53:00,40.4,19.1,29.93,ENE,77,3.0,5.0,42,0.00,,,0.00,vanprod-2.5-rc3,2013-04-01 06:53:00,
2013-04-01 00:58:00,40.3,19.0,29.93,East,92,0.0,0.0,42,0.00,,,0.00,vanprod-2.5-rc3,2013-04-01 06:58:00,
2013-04-01 01:03:00,40.4,19.7,29.95,East,92,2.0,2.0,43,0.00,,,0.00,vanprod-2.5-rc3,2013-04-01 07:03:00,
2013-04-01 01:08:00,40.5,19.8,29.94,East,85,4.0,7.0,43,0.00,,,0.00,vanprod-2.5-rc3,2013-04-01 07:08:00,
2013-04-01 01:13:00,40.3,19.6,29.95,East,94,2.0,4.0,43,0.00,,,0.00,vanprod-2.5-rc3,2013-04-01 07:13:00,
2013-04-01 01:18:00,40.0,19.3,29.95,ENE,72,4.0,4.0,43,0.00,,,0.00,vanprod-2.5-rc3,2013-04-01 07:18:00,
2013-04-01 01:23:00,39.5,18.9,29.95,East,81,3.0,3.0,43,0.00,,,0.00,vanprod-2.5-rc3,2013-04-01 07:23:00,
2013-04-01 01:28:00,39.2,19.1,29.93,East,86,3.0,3.0,44,0.00,,,0.00,vanprod-2.5-rc3,2013-04-01 07:28:00,
2013-04-01 01:33:00,39.1,19.0,29.93,East,88,0.0,0.0,44,0.00,,,0.00,vanprod-2.5-rc3,2013-04-01 07:33:00,
2013-04-01 01:38:00,39.0,19.5,29.93,East,88,0.0,0.0,45,0.00,,,0.00,vanprod-2.5-rc3,2013-04-01 07:38:00,
2013-04-01 01:43:00,38.8,19.3,29.94,East,88,0.0,0.0,45,0.00,,,0.00,vanprod-2.5-rc3,2013-04-01 07:43:00,
2013-04-01 01:48:00,38.4,18.9,29.94,East,88,0.0,0.0,45,0.00,,,0.00,vanprod-2.5-rc3,2013-04-01 07:48:00,
2013-04-01 01:53:00,38.1,19.2,29.94,East,88,0.0,0.0,46,0.00,,,0.00,vanprod-2.5-rc3,2013-04-01 07:53:00,
2013-04-01 01:58:00,37.8,19.4,29.94,East,88,0.0,0.0,47,0.00,,,0.00,vanprod-2.5-rc3,2013-04-01 07:58:00,
2013-04-01 02:03:00,37.7,19.3,29.95,ESE,123,0.0,0.0,47,0.00,,,0.00,vanprod-2.5-rc3,2013-04-01 08:03:00,
2013-04-01 02:08:00,37.8,18.9,29.95,SE,143,0.0,0.0,46,0.00,,,0.00,vanprod-2.5-rc3,2013-04-01 08:08:00,
2013-04-01 02:13:00,37.8,18.9,29.95,SE,141,0.0,0.0,46,0.00,,,0.00,vanprod-2.5-rc3,2013-04-01 08:13:00,
2013-04-01 02:18:00,37.8,19.4,29.95,ESE,111,0.0,0.0,47,0.00,,,0.00,vanprod-2.5-rc3,2013-04-01 08:18:00,
2013-04-01 02:23:00,37.7,19.3,29.95,ESE,104,1.0,2.0,47,0.00,,,0.00,vanprod-2.5-rc3,2013-04-01 08:23:00,
2013-04-01 02:28:00,37.9,19.0,29.94,East,92,2.0,4.0,46,0.00,,,0.00,vanprod-2.5-rc3,2013-04-01 08:28:00,
2013-04-01 02:33:00,37.8,19.4,29.94,ENE,74,2.0,3.0,47,0.00,,,0.00,vanprod-2.5-rc3,2013-04-01 08:33:00,
2013-04-01 02:38:00,37.4,19.0,29.95,ENE,70,2.0,4.0,47,0.00,,,0.00,vanprod-2.5-rc3,2013-04-01 08:38:00,
2013-04-01 02:43:00,37.1,19.2,29.94,ENE,70,1.0,0.0,48,0.00,,,0.00,vanprod-2.5-rc3,2013-04-01 08:43:00,
2013-04-01 02:48:00,37.1,19.2,29.94,SSE,150,0.0,0.0,48,0.00,,,0.00,vanprod-2.5-rc3,2013-04-01 08:48:00,
2013-04-01 02:53:00,37.2,18.8,29.94,South,178,0.0,0.0,47,0.00,,,0.00,vanprod-2.5-rc3,2013-04-01 08:53:00,
2013-04-01 02:58:00,37.2,18.8,29.94,South,183,0.0,0.0,47,0.00,,,0.00,vanprod-2.5-rc3,2013-04-01 08:58:00,
2013-04-01 03:03:00,37.1,19.2,29.95,South,184,0.0,0.0,48,0.00,,,0.00,vanprod-2.5-rc3,2013-04-01 09:03:00,
2013-04-01 03:08:00,36.8,19.4,29.96,SSW,197,0.0,3.0,49,0.00,,,0.00,vanprod-2.5-rc3,2013-04-01 09:08:00,
2013-04-01 03:13:00,36.5,20.1,29.95,SSW,193,0.0,0.0,51,0.00,,,0.00,vanprod-2.5-rc3,2013-04-01 09:13:00,
2013-04-01 03:18:00,35.8,19.5,29.94,South,179,0.0,0.0,51,0.00,,,0.00,vanprod-2.5-rc3,2013-04-01 09:18:00,
2013-04-01 03:23:00,35.4,19.5,29.94,South,190,0.0,0.0,52,0.00,,,0.00,vanprod-2.5-rc3,2013-04-01 09:23:00,
2013-04-01 03:28:00,35.0,19.2,29.94,South,186,0.0,0.0,52,0.00,,,0.00,vanprod-2.5-rc3,2013-04-01 09:28:00,
2013-04-01 03:33:00,34.8,19.0,29.94,South,186,0.0,0.0,52,0.00,,,0.00,vanprod-2.5-rc3,2013-04-01 09:33:00,
2013-04-01 03:38:00,34.7,18.9,29.94,South,186,0.0,0.0,52,0.00,,,0.00,vanprod-2.5-rc3,2013-04-01 09:38:00,
2013-04-01 03:43:00,34.6,19.2,29.94,South,186,0.0,0.0,53,0.00,,,0.00,vanprod-2.5-rc3,2013-04-01 09:43:00,
2013-04-01 03:48:00,34.4,19.1,29.94,South,186,0.0,0.0,53,0.00,,,0.00,vanprod-2.5-rc3,2013-04-01 09:48:00,
2013-04-01 03:53:00,34.6,19.2,29.94,East,94,0.0,0.0,53,0.00,,,0.00,vanprod-2.5-rc3,2013-04-01 09:53:00,
2013-04-01 03:58:00,34.5,19.1,29.94,ENE,78,0.0,0.0,53,0.00,,,0.00,vanprod-2.5-rc3,2013-04-01 09:58:00,
2013-04-01 04:03:00,34.5,19.1,29.94,ENE,78,0.0,0.0,53,0.00,,,0.00,vanprod-2.5-rc3,2013-04-01 10:03:00,
2013-04-01 04:08:00,34.8,19.4,29.94,ENE,78,0.0,0.0,53,0.00,,,0.00,vanprod-2.5-rc3,2013-04-01 10:08:00,
2013-04-01 04:13:00,35.0,19.6,29.94,ENE,78,0.0,0.0,53,0.00,,,0.00,vanprod-2.5-rc3,2013-04-01 10:13:00,
2013-04-01 04:18:00,35.1,19.7,29.94,ENE,78,0.0,0.0,53,0.00,,,0.00,vanprod-2.5-rc3,2013-04-01 10:18:00,
2013-04-01 04:23:00,35.0,19.6,29.94,ENE,78,0.0,0.0,53,0.00,,,0.00,vanprod-2.5-rc3,2013-04-01 10:23:00,
2013-04-01 04:28:00,35.0,19.6,29.94,ENE,78,0.0,0.0,53,0.00,,,0.00,vanprod-2.5-rc3,2013-04-01 10:28:00,
2013-04-01 04:33:00,35.2,20.2,29.94,ENE,78,0.0,0.0,54,0.00,,,0.00,vanprod-2.5-rc3,2013-04-01 10:33:00,
2013-04-01 04:38:00,35.3,19.9,29.94,ENE,58,0.0,0.0,53,0.00,,,0.00,vanprod-2.5-rc3,2013-04-01 10:38:00,
2013-04-01 04:43:00,35.5,20.1,29.95,ENE,61,0.0,0.0,53,0.00,,,0.00,vanprod-2.5-rc3,2013-04-01 10:43:00,
2013-04-01 04:48:00,35.5,20.1,29.95,ESE,122,0.0,0.0,53,0.00,,,0.00,vanprod-2.5-rc3,2013-04-01 10:48:00,
2013-04-01 04:53:00,35.5,19.6,29.95,ESE,121,0.0,0.0,52,0.00,,,0.00,vanprod-2.5-rc3,2013-04-01 10:53:00,
2013-04-01 04:58:00,35.3,19.9,29.95,SE,135,0.0,0.0,53,0.00,,,0.00,vanprod-2.5-rc3,2013-04-01 10:58:00,
2013-04-01 05:03:00,35.3,20.3,29.96,ESE,119,0.0,0.0,54,0.00,,,0.00,vanprod-2.5-rc3,2013-04-01 11:03:00,
2013-04-01 05:08:00,35.2,19.8,29.96,ESE,116,0.0,0.0,53,0.00,,,0.00,vanprod-2.5-rc3,2013-04-01 11:08:00,
2013-04-01 05:13:00,35.5,20.1,29.95,East,93,4.0,5.0,53,0.00,,,0.00,vanprod-2.5-rc3,2013-04-01 11:13:00,
2013-04-01 05:18:00,36.0,20.1,29.95,East,86,2.0,4.0,52,0.00,,,0.00,vanprod-2.5-rc3,2013-04-01 11:18:00,
2013-04-01 05:23:00,36.3,19.9,29.95,East,92,3.0,5.0,51,0.00,,,0.00,vanprod-2.5-rc3,2013-04-01 11:23:00,
2013-04-01 05:28:00,36.5,19.6,29.95,East,98,1.0,3.0,50,0.00,,,0.00,vanprod-2.5-rc3,2013-04-01 11:28:00,
2013-04-01 05:33:00,36.6,19.7,29.95,East,99,0.0,0.0,50,0.00,,,0.00,vanprod-2.5-rc3,2013-04-01 11:33:00,
2013-04-01 05:38:00,36.4,19.5,29.96,East,93,0.0,0.0,50,0.00,,,0.00,vanprod-2.5-rc3,2013-04-01 11:38:00,
2013-04-01 05:43:00,36.0,19.6,29.96,East,93,0.0,0.0,51,0.00,,,0.00,vanprod-2.5-rc3,2013-04-01 11:43:00,
2013-04-01 05:48:00,35.7,19.8,29.96,ESE,107,0.0,0.0,52,0.00,,,0.00,vanprod-2.5-rc3,2013-04-01 11:48:00,
2013-04-01 05:53:00,35.8,19.9,29.96,ESE,107,0.0,0.0,52,0.00,,,0.00,vanprod-2.5-rc3,2013-04-01 11:53:00,
2013-04-01 05:58:00,35.9,20.5,29.96,ESE,107,0.0,0.0,53,0.00,,,0.00,vanprod-2.5-rc3,2013-04-01 11:58:00,
2013-04-01 06:03:00,35.9,20.5,29.97,ESE,107,0.0,0.0,53,0.00,,,0.00,vanprod-2.5-rc3,2013-04-01 12:03:00,
2013-04-01 06:08:00,36.0,20.5,29.97,ENE,78,2.0,5.0,53,0.00,,,0.00,vanprod-2.5-rc3,2013-04-01 12:08:00,
2013-04-01 06:13:00,36.2,20.7,29.97,ENE,66,3.0,4.0,53,0.00,,,0.00,vanprod-2.5-rc3,2013-04-01 12:13:00,
2013-04-01 06:18:00,36.5,20.6,29.97,ENE,72,2.0,3.0,52,0.00,,,0.00,vanprod-2.5-rc3,2013-04-01 12:18:00,
2013-04-01 06:23:00,36.8,20.8,29.97,ENE,65,1.0,0.0,52,0.00,,,0.00,vanprod-2.5-rc3,2013-04-01 12:23:00,
2013-04-01 06:28:00,37.1,20.7,29.97,ESE,110,0.0,0.0,51,0.00,,,0.00,vanprod-2.5-rc3,2013-04-01 12:28:00,
2013-04-01 06:33:00,37.4,20.9,29.96,ESE,104,1.0,1.0,51,0.00,,,0.00,vanprod-2.5-rc3,2013-04-01 12:33:00,
2013-04-01 06:38:00,37.6,21.1,29.95,ESE,103,0.0,0.0,51,0.00,,,0.00,vanprod-2.5-rc3,2013-04-01 12:38:00,
2013-04-01 06:43:00,37.9,21.4,29.95,ESE,103,0.0,0.0,51,0.00,,,0.00,vanprod-2.5-rc3,2013-04-01 12:43:00,
2013-04-01 06:48:00,38.0,21.0,29.95,ENE,58,3.0,4.0,50,0.00,,,0.00,vanprod-2.5-rc3,2013-04-01 12:48:00,
2013-04-01 06:53:00,38.2,21.2,29.94,ENE,73,3.0,4.0,50,0.00,,,0.00,vanprod-2.5-rc3,2013-04-01 12:53:00,
2013-04-01 06:58:00,38.2,21.2,29.94,ENE,73,6.0,8.0,50,0.00,,,0.00,vanprod-2.5-rc3,2013-04-01 12:58:00,
2013-04-01 07:03:00,38.3,21.3,29.94,ENE,70,5.0,7.0,50,0.00,,,0.00,vanprod-2.5-rc3,2013-04-01 13:03:00,
2013-04-01 07:08:00,38.4,21.4,29.94,ENE,68,4.0,5.0,50,0.00,,,0.00,vanprod-2.5-rc3,2013-04-01 13:08:00,
2013-04-01 07:13:00,38.4,21.4,29.94,ENE,67,3.0,4.0,50,0.00,,,0.00,vanprod-2.5-rc3,2013-04-01 13:13:00,
2013-04-01 07:18:00,38.4,21.4,29.95,East,87,10.0,17.0,50,0.00,,,0.00,vanprod-2.5-rc3,2013-04-01 13:18:00,
2013-04-01 07:23:00,38.5,21.5,29.95,East,79,8.0,13.0,50,0.00,,,0.00,vanprod-2.5-rc3,2013-04-01 13:23:00,
2013-04-01 07:28:00,38.8,21.8,29.95,East,85,9.0,11.0,50,0.00,,,0.00,vanprod-2.5-rc3,2013-04-01 13:28:00,
2013-04-01 07:33:00,39.0,21.5,29.96,East,83,5.0,9.0,49,0.00,,,0.00,vanprod-2.5-rc3,2013-04-01 13:33:00,
2013-04-01 07:38:00,39.2,21.7,29.96,East,80,6.0,12.0,49,0.00,,,0.00,vanprod-2.5-rc3,2013-04-01 13:38:00,
2013-04-01 07:43:00,39.5,22.4,29.96,ENE,69,8.0,9.0,50,0.00,,,0.00,vanprod-2.5-rc3,2013-04-01 13:43:00,
2013-04-01 07:48:00,39.7,22.1,29.95,ENE,69,12.0,23.0,49,0.00,,,0.00,vanprod-2.5-rc3,2013-04-01 13:48:00,
2013-04-01 07:53:00,39.8,22.7,29.96,ENE,77,7.0,11.0,50,0.00,,,0.00,vanprod-2.5-rc3,2013-04-01 13:53:00,
2013-04-01 07:58:00,39.9,22.8,29.96,ENE,75,6.0,12.0,50,0.00,,,0.00,vanprod-2.5-rc3,2013-04-01 13:58:00,
2013-04-01 08:03:00,40.0,22.4,29.96,ENE,70,4.0,5.0,49,0.00,,,0.00,vanprod-2.5-rc3,2013-04-01 14:03:00,
2013-04-01 08:08:00,39.9,22.8,29.97,ENE,64,0.0,0.0,50,0.00,,,0.00,vanprod-2.5-rc3,2013-04-01 14:08:00,
2013-04-01 08:13:00,39.9,22.8,29.97,East,95,0.0,2.0,50,0.00,,,0.00,vanprod-2.5-rc3,2013-04-01 14:13:00,
2013-04-01 08:18:00,39.9,22.8,29.97,East,91,2.0,5.0,50,0.00,,,0.00,vanprod-2.5-rc3,2013-04-01 14:18:00,
2013-04-01 08:23:00,40.1,23.0,29.97,East,87,3.0,4.0,50,0.00,,,0.00,vanprod-2.5-rc3,2013-04-01 14:23:00,
2013-04-01 08:28:00,40.4,23.2,29.97,SSE,152,1.0,5.0,50,0.00,,,0.00,vanprod-2.5-rc3,2013-04-01 14:28:00,
2013-04-01 08:33:00,40.5,23.8,29.96,SSW,195,2.0,4.0,51,0.00,,,0.00,vanprod-2.5-rc3,2013-04-01 14:33:00,
2013-04-01 08:38:00,40.6,23.4,29.96,SW,221,0.0,0.0,50,0.00,,,0.00,vanprod-2.5-rc3,2013-04-01 14:38:00,
2013-04-01 08:43:00,41.0,23.8,29.95,WNW,294,1.0,4.0,50,0.00,,,0.00,vanprod-2.5-rc3,2013-04-01 14:43:00,
2013-04-01 08:48:00,41.6,24.4,29.95,NNW,347,3.0,4.0,50,0.00,,,0.00,vanprod-2.5-rc3,2013-04-01 14:48:00,
2013-04-01 08:53:00,42.1,24.8,29.94,NNE,28,1.0,4.0,50,0.00,,,0.00,vanprod-2.5-rc3,2013-04-01 14:53:00,
2013-04-01 08:58:00,43.0,24.7,29.95,NE,53,3.0,5.0,48,0.00,,,0.00,vanprod-2.5-rc3,2013-04-01 14:58:00,
2013-04-01 09:03:00,44.0,24.6,29.95,ENE,66,5.0,6.0,46,0.00,,,0.00,vanprod-2.5-rc3,2013-04-01 15:03:00,
2013-04-01 09:08:00,44.9,25.4,29.93,ENE,69,5.0,9.0,46,0.00,,,0.00,vanprod-2.5-rc3,2013-04-01 15:08:00,
2013-04-01 09:13:00,45.8,25.1,29.93,ENE,78,7.0,9.0,44,0.00,,,0.00,vanprod-2.5-rc3,2013-04-01 15:13:00,
2013-04-01 09:18:00,46.5,24.7,29.94,ENE,76,9.0,11.0,42,0.00,,,0.00,vanprod-2.5-rc3,2013-04-01 15:18:00,
2013-04-01 09:23:00,47.0,25.1,29.94,East,83,6.0,11.0,42,0.00,,,0.00,vanprod-2.5-rc3,2013-04-01 15:23:00,
2013-04-01 09:28:00,47.3,25.4,29.94,East,79,6.0,10.0,42,0.00,,,0.00,vanprod-2.5-rc3,2013-04-01 15:28:00,
2013-04-01 09:33:00,48.0,24.8,29.94,ENE,75,3.0,7.0,40,0.00,,,0.00,vanprod-2.5-rc3,2013-04-01 15:33:00,
2013-04-01 09:38:00,49.0,26.9,29.93,East,83,4.0,7.0,42,0.00,,,0.00,vanprod-2.5-rc3,2013-04-01 15:38:00,
2013-04-01 09:43:00,50.2,26.8,29.93,ENE,61,3.0,6.0,40,0.00,,,0.00,vanprod-2.5-rc3,2013-04-01 15:43:00,
2013-04-01 09:48:00,50.9,27.5,29.94,ENE,59,3.0,5.0,40,0.00,,,0.00,vanprod-2.5-rc3,2013-04-01 15:48:00,
2013-04-01 09:53:00,51.0,28.1,29.94,NE,36,2.0,6.0,41,0.00,,,0.00,vanprod-2.5-rc3,2013-04-01 15:53:00,
2013-04-01 09:58:00,51.1,27.6,29.94,NE,51,2.0,3.0,40,0.00,,,0.00,vanprod-2.5-rc3,2013-04-01 15:58:00,
2013-04-01 10:03:00,51.4,27.3,29.93,East,93,0.0,0.0,39,0.00,,,0.00,vanprod-2.5-rc3,2013-04-01 16:03:00,
2013-04-01 10:08:00,51.6,26.8,29.95,ESE,102,0.0,0.0,38,0.00,,,0.00,vanprod-2.5-rc3,2013-04-01 16:08:00,
2013-04-01 10:13:00,52.0,27.2,29.95,ESE,102,0.0,0.0,38,0.00,,,0.00,vanprod-2.5-rc3,2013-04-01 16:13:00,
2013-04-01 10:18:00,52.4,27.6,29.95,SSE,165,1.0,0.0,38,0.00,,,0.00,vanprod-2.5-rc3,2013-04-01 16:18:00,
2013-04-01 10:23:00,52.6,27.7,29.95,SW,233,2.0,3.0,38,0.00,,,0.00,vanprod-2.5-rc3,2013-04-01 16:23:00,
2013-04-01 10:28:00,52.8,28.5,29.95,South,171,4.0,6.0,39,0.00,,,0.00,vanprod-2.5-rc3,2013-04-01 16:28:00,
2013-04-01 10:33:00,53.2,28.9,29.95,SW,231,5.0,6.0,39,0.00,,,0.00,vanprod-2.5-rc3,2013-04-01 16:33:00,
2013-04-01 10:38:00,52.8,26.6,29.96,WSW,255,16.0,25.0,36,0.00,,,0.00,vanprod-2.5-rc3,2013-04-01 16:38:00,
2013-04-01 10:43:00,51.8,27.0,29.96,WSW,239,0.0,0.0,38,0.00,,,0.00,vanprod-2.5-rc3,2013-04-01 16:43:00,
2013-04-01 10:48:00,52.4,27.6,29.96,WSW,240,0.0,0.0,38,0.00,,,0.00,vanprod-2.5-rc3,2013-04-01 16:48:00,
2013-04-01 10:53:00,52.6,27.1,29.96,West,264,0.0,2.0,37,0.00,,,0.00,vanprod-2.5-rc3,2013-04-01 16:53:00,
2013-04-01 10:58:00,51.9,28.4,29.95,West,267,0.0,0.0,40,0.00,,,0.00,vanprod-2.5-rc3,2013-04-01 16:58:00,
2013-04-01 11:03:00,51.3,27.8,29.93,West,280,0.0,0.0,40,0.00,,,0.00,vanprod-2.5-rc3,2013-04-01 17:03:00,
2013-04-01 11:08:00,51.2,31.7,29.93,West,276,1.0,0.0,47,0.00,,,0.00,vanprod-2.5-rc3,2013-04-01 17:08:00,
2013-04-01 11:13:00,52.1,31.4,29.93,West,277,0.0,2.0,45,0.00,,,0.00,vanprod-2.5-rc3,2013-04-01 17:13:00,
2013-04-01 11:18:00,53.7,32.9,29.94,WNW,298,0.0,0.0,45,0.00,,,0.00,vanprod-2.5-rc3,2013-04-01 17:18:00,
2013-04-01 11:23:00,54.7,32.7,29.94,West,279,0.0,1.0,43,0.00,,,0.00,vanprod-2.5-rc3,2013-04-01 17:23:00,
2013-04-01 11:28:00,55.3,33.8,29.93,SSW,208,1.0,5.0,44,0.00,,,0.00,vanprod-2.5-rc3,2013-04-01 17:28:00,
2013-04-01 11:33:00,55.7,33.0,29.93,SW,222,2.0,2.0,42,0.00,,,0.00,vanprod-2.5-rc3,2013-04-01 17:33:00,
2013-04-01 11:38:00,56.0,33.8,29.92,SSE,165,4.0,9.0,43,0.00,,,0.00,vanprod-2.5-rc3,2013-04-01 17:38:00,
2013-04-01 11:43:00,56.4,33.0,29.92,SSW,197,0.0,0.0,41,0.00,,,0.00,vanprod-2.5-rc3,2013-04-01 17:43:00,
2013-04-01 11:48:00,56.7,33.3,29.91,SSE,167,0.0,0.0,41,0.00,,,0.00,vanprod-2.5-rc3,2013-04-01 17:48:00,
2013-04-01 11:53:00,57.4,33.3,29.90,SSE,149,0.0,0.0,40,0.00,,,0.00,vanprod-2.5-rc3,2013-04-01 17:53:00,
2013-04-01 11:58:00,58.0,32.6,29.90,SW,228,0.0,1.0,38,0.00,,,0.00,vanprod-2.5-rc3,2013-04-01 17:58:00,
2013-04-01 12:03:00,58.4,31.6,29.90,South,175,0.0,2.0,36,0.00,,,0.00,vanprod-2.5-rc3,2013-04-01 18:03:00,
2013-04-01 12:08:00,59.0,32.8,29.88,South,186,0.0,0.0,37,0.00,,,0.00,vanprod-2.5-rc3,2013-04-01 18:08:00,
2013-04-01 12:13:00,59.0,32.1,29.88,SSE,162,0.0,0.0,36,0.00,,,0.00,vanprod-2.5-rc3,2013-04-01 18:13:00,
2013-04-01 12:18:00,59.5,31.1,29.88,SE,138,0.0,0.0,34,0.00,,,0.00,vanprod-2.5-rc3,2013-04-01 18:18:00,
2013-04-01 12:23:00,59.8,32.1,29.88,ESE,118,1.0,9.0,35,0.00,,,0.00,vanprod-2.5-rc3,2013-04-01 18:23:00,
2013-04-01 12:28:00,59.8,31.4,29.88,ESE,103,0.0,7.0,34,0.00,,,0.00,vanprod-2.5-rc3,2013-04-01 18:28:00,
2013-04-01 12:33:00,60.1,32.4,29.87,NE,41,3.0,0.0,35,0.00,,,0.00,vanprod-2.5-rc3,2013-04-01 18:33:00,
2013-04-01 12:38:00,61.2,34.7,29.88,ESE,121,1.0,0.0,37,0.00,,,0.00,vanprod-2.5-rc3,2013-04-01 18:38:00,
2013-04-01 12:43:00,62.2,33.5,29.87,ENE,65,6.0,15.0,34,0.00,,,0.00,vanprod-2.5-rc3,2013-04-01 18:43:00,
2013-04-01 12:48:00,61.5,32.9,29.87,ENE,71,9.0,9.0,34,0.00,,,0.00,vanprod-2.5-rc3,2013-04-01 18:48:00,
2013-04-01 12:53:00,60.9,32.4,29.87,SE,131,4.0,4.0,34,0.00,,,0.00,vanprod-2.5-rc3,2013-04-01 18:53:00,
2013-04-01 12:58:00,60.6,32.8,29.87,ESE,118,0.0,0.0,35,0.00,,,0.00,vanprod-2.5-rc3,2013-04-01 18:58:00,
2013-04-01 13:03:00,60.6,33.5,29.87,ENE,73,2.0,10.0,36,0.00,,,0.00,vanprod-2.5-rc3,2013-04-01 19:03:00,
2013-04-01 13:08:00,60.6,33.5,29.86,East,85,5.0,5.0,36,0.00,,,0.00,vanprod-2.5-rc3,2013-04-01 19:08:00,
2013-04-01 13:13:00,60.4,33.3,29.86,NE,41,1.0,7.0,36,0.00,,,0.00,vanprod-2.5-rc3,2013-04-01 19:13:00,
2013-04-01 13:18:00,59.7,33.4,29.86,NE,47,0.0,0.0,37,0.00,,,0.00,vanprod-2.5-rc3,2013-04-01 19:18:00,
2013-04-01 13:23:00,59.3,33.1,29.87,NE,50,4.0,0.0,37,0.00,,,0.00,vanprod-2.5-rc3,2013-04-01 19:23:00,
2013-04-01 13:28:00,59.7,33.4,29.85,NE,37,8.0,19.0,37,0.00,,,0.00,vanprod-2.5-rc3,2013-04-01 19:28:00,
2013-04-01 13:33:00,61.3,33.4,29.85,NNE,32,11.0,19.0,35,0.00,,,0.00,vanprod-2.5-rc3,2013-04-01 19:33:00,
2013-04-01 13:38:00,60.8,32.3,29.85,NE,37,5.0,12.0,34,0.00,,,0.00,vanprod-2.5-rc3,2013-04-01 19:38:00,
2013-04-01 13:43:00,61.0,33.2,29.84,NNE,16,7.0,14.0,35,0.00,,,0.00,vanprod-2.5-rc3,2013-04-01 19:43:00,
2013-04-01 13:48:00,60.4,32.6,29.84,NNE,25,1.0,0.0,35,0.00,,,0.00,vanprod-2.5-rc3,2013-04-01 19:48:00,
2013-04-01 13:53:00,61.1,34.0,29.83,NNE,28,3.0,0.0,36,0.00,,,0.00,vanprod-2.5-rc3,2013-04-01 19:53:00,
2013-04-01 13:58:00,62.0,33.3,29.84,NNE,13,1.0,3.0,34,0.00,,,0.00,vanprod-2.5-rc3,2013-04-01 19:58:00,
2013-04-01 14:03:00,62.0,32.6,29.83,NE,35,1.0,0.0,33,0.00,,,0.00,vanprod-2.5-rc3,2013-04-01 20:03:00,
2013-04-01 14:08:00,61.3,32.7,29.84,North,354,0.0,0.0,34,0.00,,,0.00,vanprod-2.5-rc3,2013-04-01 20:08:00,
2013-04-01 14:13:00,60.3,32.6,29.84,North,8,0.0,0.0,35,0.00,,,0.00,vanprod-2.5-rc3,2013-04-01 20:13:00,
2013-04-01 14:18:00,59.9,32.2,29.84,NE,35,0.0,0.0,35,0.00,,,0.00,vanprod-2.5-rc3,2013-04-01 20:18:00,
2013-04-01 14:23:00,59.6,31.9,29.84,NNE,15,0.0,0.0,35,0.00,,,0.00,vanprod-2.5-rc3,2013-04-01 20:23:00,
2013-04-01 14:28:00,59.4,33.8,29.83,NNE,15,0.0,0.0,38,0.00,,,0.00,vanprod-2.5-rc3,2013-04-01 20:28:00,
2013-04-01 14:33:00,59.5,33.2,29.84,SE,134,0.0,0.0,37,0.00,,,0.00,vanprod-2.5-rc3,2013-04-01 20:33:00,
2013-04-01 14:38:00,59.5,40.3,29.84,SE,130,0.0,0.0,49,0.01,,,0.01,vanprod-2.5-rc3,2013-04-01 20:38:00,
2013-04-01 14:43:00,58.6,40.0,29.82,SE,135,0.0,0.0,50,0.01,,,0.01,vanprod-2.5-rc3,2013-04-01 20:43:00,
2013-04-01 14:48:00,57.6,39.6,29.83,SE,132,0.0,0.0,51,0.01,,,0.01,vanprod-2.5-rc3,2013-04-01 20:48:00,
2013-04-01 14:53:00,57.4,38.9,29.83,East,84,0.0,0.0,50,0.01,,,0.01,vanprod-2.5-rc3,2013-04-01 20:53:00,
2013-04-01 14:58:00,58.2,42.6,29.81,ENE,60,0.0,0.0,56,0.01,,,0.01,vanprod-2.5-rc3,2013-04-01 20:58:00,
2013-04-01 15:03:00,59.6,38.8,29.80,NNE,19,0.0,0.0,46,0.01,,,0.01,vanprod-2.5-rc3,2013-04-01 21:03:00,
2013-04-01 15:08:00,60.8,39.9,29.81,North,353,7.0,7.0,46,0.01,,,0.01,vanprod-2.5-rc3,2013-04-01 21:08:00,
2013-04-01 15:13:00,61.5,40.0,29.81,ENE,61,2.0,5.0,45,0.01,,,0.01,vanprod-2.5-rc3,2013-04-01 21:13:00,
2013-04-01 15:18:00,61.9,37.3,29.81,NNE,24,7.0,12.0,40,0.01,,,0.01,vanprod-2.5-rc3,2013-04-01 21:18:00,
2013-04-01 15:23:00,61.7,35.2,29.81,NNE,27,1.0,7.0,37,0.01,,,0.01,vanprod-2.5-rc3,2013-04-01 21:23:00,
2013-04-01 15:28:00,62.0,36.1,29.81,NNW,329,0.0,1.0,38,0.01,,,0.01,vanprod-2.5-rc3,2013-04-01 21:28:00,
2013-04-01 15:33:00,62.0,34.8,29.81,North,354,0.0,0.0,36,0.01,,,0.01,vanprod-2.5-rc3,2013-04-01 21:33:00,
2013-04-01 15:38:00,61.6,33.7,29.81,NNW,347,0.0,0.0,35,0.00,,,0.01,vanprod-2.5-rc3,2013-04-01 21:38:00,
2013-04-01 15:43:00,61.5,36.3,29.81,East,82,0.0,0.0,39,0.00,,,0.01,vanprod-2.5-rc3,2013-04-01 21:43:00,
2013-04-01 15:48:00,61.5,41.6,29.80,East,88,0.0,0.0,48,0.00,,,0.01,vanprod-2.5-rc3,2013-04-01 21:48:00,
2013-04-01 15:53:00,62.0,38.7,29.80,NE,42,0.0,0.0,42,0.00,,,0.01,vanprod-2.5-rc3,2013-04-01 21:53:00,
2013-04-01 15:58:00,62.9,40.7,29.78,East,91,1.0,1.0,44,0.00,,,0.01,vanprod-2.5-rc3,2013-04-01 21:58:00,
2013-04-01 16:03:00,63.2,36.5,29.79,NNE,13,0.0,0.0,37,0.00,,,0.01,vanprod-2.5-rc3,2013-04-01 22:03:00,
2013-04-01 16:08:00,63.3,35.9,29.79,NE,39,9.0,17.0,36,0.00,,,0.01,vanprod-2.5-rc3,2013-04-01 22:08:00,
2013-04-01 16:13:00,61.6,34.4,29.78,NE,48,2.0,6.0,36,0.00,,,0.01,vanprod-2.5-rc3,2013-04-01 22:13:00,
2013-04-01 16:18:00,60.3,34.6,29.78,NE,45,2.0,7.0,38,0.00,,,0.01,vanprod-2.5-rc3,2013-04-01 22:18:00,
2013-04-01 16:23:00,59.8,34.8,29.78,NE,51,1.0,4.0,39,0.00,,,0.01,vanprod-2.5-rc3,2013-04-01 22:23:00,
2013-04-01 16:28:00,59.3,33.7,29.77,NE,40,0.0,0.0,38,0.00,,,0.01,vanprod-2.5-rc3,2013-04-01 22:28:00,
2013-04-01 16:33:00,59.0,33.5,29.77,NNE,24,7.0,7.0,38,0.00,,,0.01,vanprod-2.5-rc3,2013-04-01 22:33:00,
2013-04-01 16:38:00,59.0,33.5,29.77,NNE,33,0.0,0.0,38,0.00,,,0.01,vanprod-2.5-rc3,2013-04-01 22:38:00,
2013-04-01 16:43:00,58.6,33.7,29.77,NE,46,0.0,0.0,39,0.00,,,0.01,vanprod-2.5-rc3,2013-04-01 22:43:00,
2013-04-01 16:48:00,58.5,34.3,29.78,ENE,73,0.0,0.0,40,0.00,,,0.01,vanprod-2.5-rc3,2013-04-01 22:48:00,
2013-04-01 16:53:00,58.5,34.3,29.79,ESE,117,0.0,0.0,40,0.00,,,0.01,vanprod-2.5-rc3,2013-04-01 22:53:00,
2013-04-01 16:58:00,58.8,35.2,29.78,ESE,116,0.0,0.0,41,0.00,,,0.01,vanprod-2.5-rc3,2013-04-01 22:58:00,
2013-04-01 17:03:00,59.2,35.5,29.78,East,92,0.0,0.0,41,0.00,,,0.01,vanprod-2.5-rc3,2013-04-01 23:03:00,
2013-04-01 17:08:00,60.6,34.9,29.76,ENE,63,0.0,0.0,38,0.00,,,0.01,vanprod-2.5-rc3,2013-04-01 23:08:00,
2013-04-01 17:13:00,61.7,33.8,29.76,NE,52,0.0,4.0,35,0.00,,,0.01,vanprod-2.5-rc3,2013-04-01 23:13:00,
2013-04-01 17:18:00,61.3,33.4,29.76,NNE,29,0.0,0.0,35,0.00,,,0.01,vanprod-2.5-rc3,2013-04-01 23:18:00,
2013-04-01 17:23:00,60.6,32.8,29.76,NE,54,0.0,0.0,35,0.00,,,0.01,vanprod-2.5-rc3,2013-04-01 23:23:00,
2013-04-01 17:28:00,60.3,32.6,29.77,ENE,57,0.0,0.0,35,0.00,,,0.01,vanprod-2.5-rc3,2013-04-01 23:28:00,
2013-04-01 17:33:00,60.1,33.1,29.77,ENE,64,4.0,5.0,36,0.00,,,0.01,vanprod-2.5-rc3,2013-04-01 23:33:00,
2013-04-01 17:38:00,59.5,33.2,29.77,ENE,61,3.0,3.0,37,0.00,,,0.01,vanprod-2.5-rc3,2013-04-01 23:38:00,
2013-04-01 17:43:00,59.5,33.2,29.77,NE,53,1.0,0.0,37,0.00,,,0.01,vanprod-2.5-rc3,2013-04-01 23:43:00,
2013-04-01 17:48:00,59.4,33.8,29.77,NNE,32,5.0,5.0,38,0.00,,,0.01,vanprod-2.5-rc3,2013-04-01 23:48:00,
2013-04-01 17:53:00,59.0,32.8,29.77,NE,44,0.0,0.0,37,0.00,,,0.01,vanprod-2.5-rc3,2013-04-01 23:53:00,
2013-04-01 17:58:00,59.0,32.8,29.77,NE,40,0.0,0.0,37,0.00,,,0.01,vanprod-2.5-rc3,2013-04-01 23:58:00,
2013-04-01 18:03:00,58.8,35.2,29.78,East,99,0.0,0.0,41,0.00,,,0.01,vanprod-2.5-rc3,2013-04-02 00:03:00,
2013-04-01 18:08:00,58.5,34.3,29.78,NNE,20,0.0,0.0,40,0.00,,,0.01,vanprod-2.5-rc3,2013-04-02 00:08:00,
2013-04-01 18:13:00,57.4,33.3,29.78,North,350,12.0,14.0,40,0.00,,,0.01,vanprod-2.5-rc3,2013-04-02 00:13:00,
2013-04-01 18:18:00,56.0,33.3,29.77,NE,37,6.0,6.0,42,0.00,,,0.01,vanprod-2.5-rc3,2013-04-02 00:18:00,
2013-04-01 18:23:00,55.3,33.2,29.79,NE,42,3.0,3.0,43,0.00,,,0.01,vanprod-2.5-rc3,2013-04-02 00:23:00,
2013-04-01 18:28:00,55.1,33.0,29.79,North,2,3.0,4.0,43,0.00,,,0.01,vanprod-2.5-rc3,2013-04-02 00:28:00,
2013-04-01 18:33:00,55.1,33.6,29.79,East,80,1.0,3.0,44,0.00,,,0.01,vanprod-2.5-rc3,2013-04-02 00:33:00,
2013-04-01 18:38:00,55.3,33.8,29.79,East,80,6.0,6.0,44,0.00,,,0.01,vanprod-2.5-rc3,2013-04-02 00:38:00,
2013-04-01 18:43:00,55.4,33.9,29.80,East,101,4.0,10.0,44,0.00,,,0.01,vanprod-2.5-rc3,2013-04-02 00:43:00,
2013-04-01 18:48:00,55.3,34.3,29.80,East,91,11.0,11.0,45,0.00,,,0.01,vanprod-2.5-rc3,2013-04-02 00:48:00,
2013-04-01 18:53:00,54.6,34.3,29.80,East,94,12.0,12.0,46,0.00,,,0.01,vanprod-2.5-rc3,2013-04-02 00:53:00,
2013-04-01 18:58:00,54.0,34.2,29.80,East,82,12.0,24.0,47,0.00,,,0.01,vanprod-2.5-rc3,2013-04-02 00:58:00,
2013-04-01 19:03:00,53.2,34.0,29.80,East,81,14.0,14.0,48,0.00,,,0.01,vanprod-2.5-rc3,2013-04-02 01:03:00,
2013-04-01 19:08:00,52.3,34.2,29.80,ENE,68,11.0,12.0,50,0.00,,,0.01,vanprod-2.5-rc3,2013-04-02 01:08:00,
2013-04-01 19:13:00,51.7,33.2,29.81,NE,48,1.0,0.0,49,0.00,,,0.01,vanprod-2.5-rc3,2013-04-02 01:13:00,
2013-04-01 19:18:00,51.4,33.4,29.81,East,95,7.0,12.0,50,0.00,,,0.01,vanprod-2.5-rc3,2013-04-02 01:18:00,
2013-04-01 19:23:00,51.5,33.5,29.82,ESE,120,13.0,13.0,50,0.00,,,0.01,vanprod-2.5-rc3,2013-04-02 01:23:00,
2013-04-01 19:28:00,51.5,33.5,29.82,East,81,11.0,12.0,50,0.00,,,0.01,vanprod-2.5-rc3,2013-04-02 01:28:00,
2013-04-01 19:33:00,51.1,32.6,29.80,ENE,58,14.0,14.0,49,0.00,,,0.01,vanprod-2.5-rc3,2013-04-02 01:33:00,
2013-04-01 19:38:00,51.4,31.9,29.81,ESE,113,2.0,0.0,47,0.00,,,0.01,vanprod-2.5-rc3,2013-04-02 01:38:00,
2013-04-01 19:43:00,51.9,32.3,29.82,ENE,61,0.0,0.0,47,0.00,,,0.01,vanprod-2.5-rc3,2013-04-02 01:43:00,
2013-04-01 19:48:00,51.7,31.6,29.83,ENE,64,0.0,1.0,46,0.00,,,0.01,vanprod-2.5-rc3,2013-04-02 01:48:00,
2013-04-01 19:53:00,51.6,32.0,29.83,ENE,78,0.0,0.0,47,0.00,,,0.01,vanprod-2.5-rc3,2013-04-02 01:53:00,
2013-04-01 19:58:00,51.5,32.0,29.83,East,81,0.0,0.0,47,0.00,,,0.01,vanprod-2.5-rc3,2013-04-02 01:58:00,
2013-04-01 20:03:00,51.4,32.4,29.84,ESE,105,0.0,0.0,48,0.00,,,0.01,vanprod-2.5-rc3,2013-04-02 02:03:00,
2013-04-01 20:08:00,51.3,32.3,29.85,WSW,241,0.0,0.0,48,0.00,,,0.01,vanprod-2.5-rc3,2013-04-02 02:08:00,
2013-04-01 20:13:00,51.2,31.7,29.83,SSW,213,0.0,0.0,47,0.00,,,0.01,vanprod-2.5-rc3,2013-04-02 02:13:00,
2013-04-01 20:18:00,51.4,32.4,29.86,WSW,245,0.0,0.0,48,0.00,,,0.01,vanprod-2.5-rc3,2013-04-02 02:18:00,
2013-04-01 20:23:00,51.2,32.2,29.86,WNW,298,2.0,0.0,48,0.00,,,0.01,vanprod-2.5-rc3,2013-04-02 02:23:00,
2013-04-01 20:28:00,51.1,32.1,29.87,WSW,244,1.0,2.0,48,0.00,,,0.01,vanprod-2.5-rc3,2013-04-02 02:28:00,
2013-04-01 20:33:00,51.0,32.5,29.88,SSW,194,4.0,6.0,49,0.00,,,0.01,vanprod-2.5-rc3,2013-04-02 02:33:00,
2013-04-01 20:38:00,50.9,32.4,29.88,South,189,7.0,9.0,49,0.00,,,0.01,vanprod-2.5-rc3,2013-04-02 02:38:00,
2013-04-01 20:43:00,50.8,34.8,29.88,South,183,5.0,5.0,54,0.00,,,0.01,vanprod-2.5-rc3,2013-04-02 02:43:00,
2013-04-01 20:48:00,50.4,35.8,29.88,SSE,164,4.0,5.0,57,0.00,,,0.01,vanprod-2.5-rc3,2013-04-02 02:48:00,
2013-04-01 20:53:00,50.0,34.5,29.87,SE,145,2.0,3.0,55,0.00,,,0.01,vanprod-2.5-rc3,2013-04-02 02:53:00,
2013-04-01 20:58:00,49.6,35.0,29.88,SE,145,3.0,3.0,57,0.00,,,0.01,vanprod-2.5-rc3,2013-04-02 02:58:00,
2013-04-01 21:03:00,49.2,34.6,29.87,SE,142,0.0,0.0,57,0.00,,,0.01,vanprod-2.5-rc3,2013-04-02 03:03:00,
2013-04-01 21:08:00,49.0,34.4,29.87,ESE,106,3.0,3.0,57,0.00,,,0.01,vanprod-2.5-rc3,2013-04-02 03:08:00,
2013-04-01 21:13:00,48.7,34.2,29.88,ESE,115,0.0,0.0,57,0.00,,,0.01,vanprod-2.5-rc3,2013-04-02 03:13:00,
2013-04-01 21:18:00,48.4,33.9,29.89,ESE,116,2.0,5.0,57,0.00,,,0.01,vanprod-2.5-rc3,2013-04-02 03:18:00,
2013-04-01 21:23:00,48.3,34.2,29.89,ESE,117,2.0,5.0,58,0.00,,,0.01,vanprod-2.5-rc3,2013-04-02 03:23:00,
2013-04-01 21:28:00,48.2,34.1,29.88,East,95,4.0,4.0,58,0.00,,,0.01,vanprod-2.5-rc3,2013-04-02 03:28:00,
2013-04-01 21:33:00,48.2,34.1,29.89,ESE,116,2.0,0.0,58,0.00,,,0.01,vanprod-2.5-rc3,2013-04-02 03:33:00,
2013-04-01 21:38:00,48.1,34.0,29.89,ESE,120,1.0,2.0,58,0.00,,,0.01,vanprod-2.5-rc3,2013-04-02 03:38:00,
2013-04-01 21:43:00,47.9,34.3,29.90,SSE,166,1.0,4.0,59,0.00,,,0.01,vanprod-2.5-rc3,2013-04-02 03:43:00,
2013-04-01 21:48:00,47.7,33.7,29.89,South,182,2.0,2.0,58,0.00,,,0.01,vanprod-2.5-rc3,2013-04-02 03:48:00,
2013-04-01 21:53:00,47.7,33.2,29.89,South,182,0.0,0.0,57,0.00,,,0.01,vanprod-2.5-rc3,2013-04-02 03:53:00,
2013-04-01 21:58:00,47.8,33.3,29.90,South,186,0.0,0.0,57,0.00,,,0.01,vanprod-2.5-rc3,2013-04-02 03:58:00,
2013-04-01 22:00:00,47.7,33.2,29.90,South,185,0.0,0.0,57,0.00,,,0.01,vanprod-2.5-rc3,2013-04-02 04:00:00,
2013-04-01 22:05:00,47.5,33.0,29.90,West,260,0.0,0.0,57,0.00,,,0.01,vanprod-2.5-rc3,2013-04-02 04:05:00,
2013-04-01 22:10:00,47.2,32.8,29.90,WNW,283,0.0,0.0,57,0.00,,,0.01,vanprod-2.5-rc3,2013-04-02 04:10:00,
2013-04-01 22:15:00,46.8,32.8,29.90,WNW,283,0.0,0.0,58,0.00,,,0.01,vanprod-2.5-rc3,2013-04-02 04:15:00,
2013-04-01 22:20:00,46.5,32.5,29.90,WNW,283,0.0,0.0,58,0.00,,,0.01,vanprod-2.5-rc3,2013-04-02 04:20:00,
2013-04-01 22:25:00,46.2,32.3,29.89,WNW,283,0.0,0.0,58,0.00,,,0.01,vanprod-2.5-rc3,2013-04-02 04:25:00,
2013-04-01 22:30:00,45.9,32.4,29.89,WNW,282,0.0,0.0,59,0.00,,,0.01,vanprod-2.5-rc3,2013-04-02 04:30:00,
2013-04-01 22:35:00,45.3,31.8,29.89,WNW,283,0.0,0.0,59,0.00,,,0.01,vanprod-2.5-rc3,2013-04-02 04:35:00,
2013-04-01 22:40:00,44.7,32.1,29.88,NE,38,0.0,0.0,61,0.00,,,0.01,vanprod-2.5-rc3,2013-04-02 04:40:00,
2013-04-01 22:45:00,44.0,31.8,29.89,ENE,71,0.0,0.0,62,0.00,,,0.01,vanprod-2.5-rc3,2013-04-02 04:45:00,
2013-04-01 22:50:00,43.4,31.7,29.89,ENE,75,0.0,0.0,63,0.00,,,0.01,vanprod-2.5-rc3,2013-04-02 04:50:00,
2013-04-01 22:55:00,43.0,31.7,29.87,ENE,74,0.0,0.0,64,0.00,,,0.01,vanprod-2.5-rc3,2013-04-02 04:55:00,
2013-04-01 23:00:00,42.6,31.7,29.87,ENE,74,0.0,0.0,65,0.00,,,0.01,vanprod-2.5-rc3,2013-04-02 05:00:00,
2013-04-01 23:05:00,42.4,32.2,29.89,ENE,75,0.0,0.0,67,0.00,,,0.01,vanprod-2.5-rc3,2013-04-02 05:05:00,
2013-04-01 23:10:00,42.2,32.0,29.88,ENE,66,2.0,4.0,67,0.00,,,0.01,vanprod-2.5-rc3,2013-04-02 05:10:00,
2013-04-01 23:15:00,42.2,32.4,29.88,NE,46,3.0,6.0,68,0.00,,,0.01,vanprod-2.5-rc3,2013-04-02 05:15:00,
2013-04-01 23:20:00,42.5,32.7,29.88,NE,52,4.0,5.0,68,0.00,,,0.01,vanprod-2.5-rc3,2013-04-02 05:20:00,
2013-04-01 23:25:00,42.9,32.7,29.88,NE,40,4.0,7.0,67,0.00,,,0.01,vanprod-2.5-rc3,2013-04-02 05:25:00,
2013-04-01 23:30:00,43.1,32.9,29.88,ENE,77,4.0,5.0,67,0.00,,,0.01,vanprod-2.5-rc3,2013-04-02 05:30:00,
2013-04-01 23:35:00,43.1,32.9,29.88,ENE,73,5.0,5.0,67,0.00,,,0.01,vanprod-2.5-rc3,2013-04-02 05:35:00,
2013-04-01 23:40:00,42.9,33.1,29.88,ENE,71,6.0,6.0,68,0.00,,,0.01,vanprod-2.5-rc3,2013-04-02 05:40:00,
2013-04-01 23:45:00,42.7,32.9,29.88,ENE,75,5.0,6.0,68,0.00,,,0.01,vanprod-2.5-rc3,2013-04-02 05:45:00,
2013-04-01 23:50:00,42.7,32.9,29.88,ENE,73,4.0,6.0,68,0.00,,,0.01,vanprod-2.5-rc3,2013-04-02 05:50:00,
2013-04-01 23:55:00,42.7,32.9,29.87,ENE,62,5.0,5.0,68,0.00,,,0.01,vanprod-2.5-rc3,2013-04-02 05:55:00,